PWSweather.com
Personal Weather Stations
Station Observations
KWAYELM6
Clearwood, Yelm, Yelm, WA 98597

Clearwood, YelmYelm, WA 98597

Lat: 46.82, Lon: -122.48

Elevation: 560

Station Type: Davis Vantage Vue

Latest ConditionsUpdated 9:15:00 PM PST Monday, Feb 27, 2017
Currently Today's Max Today's Min Today's Average
Temperature 35.9°F2.2°C 39.5°F4.2°C 32.1°F0.1°C 35.5°F1.9°C
Dew Point 33.5°F0.8°C 36.0°F2.2°C 31.3°F-0.4°C 33.5°F0.8°C
Winds Calm Calm 1.0 mph SW1.6 kmh SW - 0.1 mph 0.2 kmh
Wind Gusts 1.0 mph1.6 kmh 8.0 mph12.9 kmh - -
Humidity 91% 98% 80% 93%
Pressure 29.76 in1007.8 mb 29.77 in1008.1 mb 29.71 in1006.1 mb -
Precipitation - 0.08 in2.0 mm - -
Hour Temp Dew Point Humidity Winds Wind Gusts Pressure Precip Precip Rate Daily Precip Total
09:15 PM 35.9°F2.2°C 33.5°F0.8°C 91% Calm Calm 1.0 mph1.6 kmh 29.76 in1007.8 mb 0.00 in0.0 mm 0.00 in0.0 mm 0.08 in2.0 mm
09:00 PM 36.1°F2.3°C 33.5°F0.8°C 90% Calm Calm 1.0 mph1.6 kmh 29.75 in1007.5 mb 0.00 in0.0 mm 0.00 in0.0 mm 0.08 in2.0 mm
08:45 PM 36.1°F2.3°C 33.7°F0.9°C 91% Calm Calm -- 29.75 in1007.5 mb 0.00 in0.0 mm 0.00 in0.0 mm 0.08 in2.0 mm
08:30 PM 36.0°F2.2°C 33.4°F0.8°C 90% Calm Calm 1.0 mph1.6 kmh 29.76 in1007.8 mb 0.00 in0.0 mm 0.00 in0.0 mm 0.08 in2.0 mm
08:15 PM 36.2°F2.3°C 33.8°F1.0°C 91% Calm Calm -- 29.76 in1007.8 mb 0.00 in0.0 mm 0.00 in0.0 mm 0.08 in2.0 mm
08:00 PM 36.6°F2.6°C 33.9°F1.1°C 90% Calm Calm -- 29.75 in1007.5 mb 0.00 in0.0 mm 0.00 in0.0 mm 0.08 in2.0 mm
07:45 PM 37.8°F3.2°C 35.1°F1.7°C 90% Calm Calm 3.0 mph4.8 kmh 29.72 in1006.4 mb 0.00 in0.0 mm 0.00 in0.0 mm 0.08 in2.0 mm
04:15 PM 37.8°F3.2°C 36.0°F2.2°C 93% Calm Calm 1.0 mph1.6 kmh 29.72 in1006.4 mb 0.01 in0.3 mm 0.00 in0.0 mm 0.08 in2.0 mm
04:00 PM 37.3°F2.9°C 35.7°F2.1°C 94% Calm Calm 1.0 mph1.6 kmh 29.72 in1006.4 mb 0.02 in0.5 mm 0.00 in0.0 mm 0.08 in2.0 mm
03:45 PM 36.8°F2.7°C 35.0°F1.7°C 93% Calm Calm -- 29.73 in1006.8 mb 0.02 in0.5 mm 0.04 in1.0 mm 0.08 in2.0 mm
03:30 PM 36.9°F2.7°C 35.1°F1.7°C 93% Calm Calm 1.0 mph1.6 kmh 29.73 in1006.8 mb 0.01 in0.3 mm 0.00 in0.0 mm 0.07 in1.8 mm
03:15 PM 37.2°F2.9°C 34.8°F1.6°C 91% Calm Calm 2.0 mph3.2 kmh 29.72 in1006.4 mb 0.02 in0.5 mm 0.00 in0.0 mm 0.07 in1.8 mm
03:00 PM 37.5°F3.1°C 34.8°F1.6°C 90% 1.0 mph WSW1.6 kmh WSW 4.0 mph6.4 kmh 29.72 in1006.4 mb 0.02 in0.5 mm 0.00 in0.0 mm 0.06 in1.5 mm
02:45 PM 37.0°F2.8°C 35.2°F1.8°C 93% Calm Calm 2.0 mph3.2 kmh 29.72 in1006.4 mb 0.03 in0.8 mm 0.00 in0.0 mm 0.06 in1.5 mm
02:30 PM 36.8°F2.7°C 35.0°F1.7°C 93% Calm Calm 1.0 mph1.6 kmh 29.72 in1006.4 mb 0.03 in0.8 mm 0.04 in1.0 mm 0.06 in1.5 mm
02:15 PM 37.1°F2.8°C 34.7°F1.5°C 91% Calm Calm 2.0 mph3.2 kmh 29.73 in1006.8 mb 0.02 in0.5 mm 0.04 in1.0 mm 0.05 in1.3 mm
02:00 PM 37.5°F3.1°C 34.0°F1.1°C 87% 1.0 mph WSW1.6 kmh WSW 5.0 mph8.0 kmh 29.72 in1006.4 mb 0.01 in0.3 mm 0.01 in0.3 mm 0.04 in1.0 mm
01:45 PM 39.5°F4.2°C 33.8°F1.0°C 80% 1.0 mph SW1.6 kmh SW 8.0 mph12.9 kmh 29.72 in1006.4 mb 0.00 in0.0 mm 0.00 in0.0 mm 0.03 in0.8 mm
01:30 PM 39.5°F4.2°C 33.8°F1.0°C 80% Calm Calm 2.0 mph3.2 kmh 29.71 in1006.1 mb 0.00 in0.0 mm 0.00 in0.0 mm 0.03 in0.8 mm
01:15 PM 39.2°F4.0°C 34.2°F1.2°C 82% Calm Calm 2.0 mph3.2 kmh 29.71 in1006.1 mb 0.00 in0.0 mm 0.00 in0.0 mm 0.03 in0.8 mm
01:00 PM 38.9°F3.8°C 34.5°F1.4°C 84% Calm Calm 2.0 mph3.2 kmh 29.72 in1006.4 mb 0.00 in0.0 mm 0.00 in0.0 mm 0.03 in0.8 mm
12:45 PM 38.5°F3.6°C 34.1°F1.2°C 84% Calm Calm 2.0 mph3.2 kmh 29.73 in1006.8 mb 0.00 in0.0 mm 0.00 in0.0 mm 0.03 in0.8 mm
12:30 PM 37.9°F3.3°C 35.5°F1.9°C 91% Calm Calm 2.0 mph3.2 kmh 29.73 in1006.8 mb 0.00 in0.0 mm 0.00 in0.0 mm 0.03 in0.8 mm
12:15 PM 38.0°F3.3°C 34.8°F1.6°C 88% Calm Calm 2.0 mph3.2 kmh 29.74 in1007.1 mb 0.00 in0.0 mm 0.00 in0.0 mm 0.03 in0.8 mm
12:00 PM 38.1°F3.4°C 35.1°F1.7°C 89% Calm Calm 1.0 mph1.6 kmh 29.73 in1006.8 mb 0.01 in0.3 mm 0.00 in0.0 mm 0.03 in0.8 mm
11:45 AM 37.4°F3.0°C 34.5°F1.4°C 89% 1.0 mph SSW1.6 kmh SSW 3.0 mph4.8 kmh 29.73 in1006.8 mb 0.03 in0.8 mm 0.00 in0.0 mm 0.03 in0.8 mm
11:30 AM 36.7°F2.6°C 35.1°F1.7°C 94% Calm Calm 1.0 mph1.6 kmh 29.74 in1007.1 mb 0.03 in0.8 mm 0.00 in0.0 mm 0.03 in0.8 mm
11:15 AM 36.3°F2.4°C 34.5°F1.4°C 93% Calm Calm 2.0 mph3.2 kmh 29.74 in1007.1 mb 0.03 in0.8 mm 0.04 in1.0 mm 0.03 in0.8 mm
11:00 AM 36.6°F2.6°C 33.9°F1.1°C 90% Calm Calm 1.0 mph1.6 kmh 29.74 in1007.1 mb 0.02 in0.5 mm 0.03 in0.8 mm 0.02 in0.5 mm
10:45 AM 37.5°F3.1°C 34.0°F1.1°C 87% Calm Calm 2.0 mph3.2 kmh 29.74 in1007.1 mb 0.00 in0.0 mm 0.00 in0.0 mm 0.00 in0.0 mm
10:30 AM 37.6°F3.1°C 33.5°F0.8°C 85% Calm Calm 3.0 mph4.8 kmh 29.74 in1007.1 mb 0.00 in0.0 mm 0.00 in0.0 mm 0.00 in0.0 mm
10:15 AM 37.6°F3.1°C 33.2°F0.7°C 84% Calm Calm 3.0 mph4.8 kmh 29.74 in1007.1 mb 0.00 in0.0 mm 0.00 in0.0 mm 0.00 in0.0 mm
10:00 AM 37.5°F3.1°C 33.4°F0.8°C 85% 1.0 mph SW1.6 kmh SW 7.0 mph11.3 kmh 29.74 in1007.1 mb 0.00 in0.0 mm 0.00 in0.0 mm 0.00 in0.0 mm
09:45 AM 37.1°F2.8°C 33.6°F0.9°C 87% Calm Calm 2.0 mph3.2 kmh 29.74 in1007.1 mb 0.00 in0.0 mm 0.00 in0.0 mm 0.00 in0.0 mm
09:30 AM 36.7°F2.6°C 33.5°F0.8°C 88% Calm Calm 1.0 mph1.6 kmh 29.74 in1007.1 mb 0.00 in0.0 mm 0.00 in0.0 mm 0.00 in0.0 mm
09:15 AM 36.7°F2.6°C 33.8°F1.0°C 89% Calm Calm 2.0 mph3.2 kmh 29.75 in1007.5 mb 0.00 in0.0 mm 0.00 in0.0 mm 0.00 in0.0 mm
09:00 AM 36.6°F2.6°C 33.4°F0.8°C 88% Calm Calm 6.0 mph9.7 kmh 29.75 in1007.5 mb 0.00 in0.0 mm 0.00 in0.0 mm 0.00 in0.0 mm
08:45 AM 36.1°F2.3°C 33.5°F0.8°C 90% Calm Calm 1.0 mph1.6 kmh 29.75 in1007.5 mb 0.00 in0.0 mm 0.00 in0.0 mm 0.00 in0.0 mm
08:30 AM 35.6°F2.0°C 33.2°F0.7°C 91% Calm Calm 1.0 mph1.6 kmh 29.75 in1007.5 mb 0.00 in0.0 mm 0.00 in0.0 mm 0.00 in0.0 mm
08:15 AM 35.2°F1.8°C 33.6°F0.9°C 94% Calm Calm 1.0 mph1.6 kmh 29.75 in1007.5 mb 0.00 in0.0 mm 0.00 in0.0 mm 0.00 in0.0 mm
08:00 AM 34.6°F1.4°C 33.1°F0.6°C 94% Calm Calm 1.0 mph1.6 kmh 29.75 in1007.5 mb 0.00 in0.0 mm 0.00 in0.0 mm 0.00 in0.0 mm
07:45 AM 34.3°F1.3°C 33.5°F0.8°C 97% Calm Calm -- 29.75 in1007.5 mb 0.00 in0.0 mm 0.00 in0.0 mm 0.00 in0.0 mm
07:30 AM 34.2°F1.2°C 33.4°F0.8°C 97% Calm Calm 1.0 mph1.6 kmh 29.75 in1007.5 mb 0.00 in0.0 mm 0.00 in0.0 mm 0.00 in0.0 mm
07:15 AM 34.0°F1.1°C 33.5°F0.8°C 98% Calm Calm 2.0 mph3.2 kmh 29.75 in1007.5 mb 0.00 in0.0 mm 0.00 in0.0 mm 0.00 in0.0 mm
07:00 AM 34.0°F1.1°C 33.5°F0.8°C 98% Calm Calm 1.0 mph1.6 kmh 29.75 in1007.5 mb 0.00 in0.0 mm 0.00 in0.0 mm 0.00 in0.0 mm
06:45 AM 33.7°F0.9°C 33.2°F0.7°C 98% Calm Calm 1.0 mph1.6 kmh 29.75 in1007.5 mb 0.00 in0.0 mm 0.00 in0.0 mm 0.00 in0.0 mm
06:30 AM 33.5°F0.8°C 33.0°F0.6°C 98% Calm Calm 1.0 mph1.6 kmh 29.75 in1007.5 mb 0.00 in0.0 mm 0.00 in0.0 mm 0.00 in0.0 mm
06:15 AM 33.3°F0.7°C 32.8°F0.4°C 98% Calm Calm 1.0 mph1.6 kmh 29.75 in1007.5 mb 0.00 in0.0 mm 0.00 in0.0 mm 0.00 in0.0 mm
06:00 AM 32.9°F0.5°C 32.4°F0.2°C 98% Calm Calm 1.0 mph1.6 kmh 29.75 in1007.5 mb 0.00 in0.0 mm 0.00 in0.0 mm 0.00 in0.0 mm
05:45 AM 32.3°F0.2°C 31.8°F-0.1°C 98% Calm Calm 1.0 mph1.6 kmh 29.76 in1007.8 mb 0.00 in0.0 mm 0.00 in0.0 mm 0.00 in0.0 mm
05:30 AM 32.4°F0.2°C 31.9°F-0.1°C 98% Calm Calm -- 29.75 in1007.5 mb 0.00 in0.0 mm 0.00 in0.0 mm 0.00 in0.0 mm
05:15 AM 32.1°F0.1°C 31.3°F-0.4°C 97% Calm Calm -- 29.75 in1007.5 mb 0.00 in0.0 mm 0.00 in0.0 mm 0.00 in0.0 mm
05:00 AM 32.2°F0.1°C 31.4°F-0.3°C 97% Calm Calm 1.0 mph1.6 kmh 29.75 in1007.5 mb 0.00 in0.0 mm 0.00 in0.0 mm 0.00 in0.0 mm
04:45 AM 32.3°F0.2°C 31.5°F-0.3°C 97% Calm Calm -- 29.75 in1007.5 mb 0.00 in0.0 mm 0.00 in0.0 mm 0.00 in0.0 mm
04:30 AM 32.3°F0.2°C 31.5°F-0.3°C 97% Calm Calm 1.0 mph1.6 kmh 29.76 in1007.8 mb 0.00 in0.0 mm 0.00 in0.0 mm 0.00 in0.0 mm
04:15 AM 32.4°F0.2°C 31.6°F-0.2°C 97% Calm Calm -- 29.76 in1007.8 mb 0.00 in0.0 mm 0.00 in0.0 mm 0.00 in0.0 mm
04:00 AM 32.4°F0.2°C 31.6°F-0.2°C 97% Calm Calm -- 29.76 in1007.8 mb 0.00 in0.0 mm 0.00 in0.0 mm 0.00 in0.0 mm
03:45 AM 32.6°F0.3°C 31.8°F-0.1°C 97% Calm Calm -- 29.76 in1007.8 mb 0.00 in0.0 mm 0.00 in0.0 mm 0.00 in0.0 mm
03:30 AM 32.5°F0.3°C 31.7°F-0.2°C 97% Calm Calm -- 29.76 in1007.8 mb 0.00 in0.0 mm 0.00 in0.0 mm 0.00 in0.0 mm
03:15 AM 32.6°F0.3°C 31.8°F-0.1°C 97% Calm Calm -- 29.76 in1007.8 mb 0.00 in0.0 mm 0.00 in0.0 mm 0.00 in0.0 mm
03:00 AM 32.7°F0.4°C 31.9°F-0.1°C 97% Calm Calm -- 29.76 in1007.8 mb 0.00 in0.0 mm 0.00 in0.0 mm 0.00 in0.0 mm
02:45 AM 32.8°F0.4°C 32.0°F0.0°C 97% Calm Calm -- 29.76 in1007.8 mb 0.00 in0.0 mm 0.00 in0.0 mm 0.00 in0.0 mm
02:30 AM 33.3°F0.7°C 32.5°F0.3°C 97% Calm Calm -- 29.77 in1008.1 mb 0.00 in0.0 mm 0.00 in0.0 mm 0.00 in0.0 mm
02:15 AM 33.8°F1.0°C 33.0°F0.6°C 97% Calm Calm -- 29.76 in1007.8 mb 0.00 in0.0 mm 0.00 in0.0 mm 0.00 in0.0 mm
02:00 AM 34.0°F1.1°C 33.2°F0.7°C 97% Calm Calm -- 29.77 in1008.1 mb 0.00 in0.0 mm 0.00 in0.0 mm 0.00 in0.0 mm
01:45 AM 34.1°F1.2°C 33.3°F0.7°C 97% Calm Calm 1.0 mph1.6 kmh 29.77 in1008.1 mb 0.00 in0.0 mm 0.00 in0.0 mm 0.00 in0.0 mm
01:30 AM 34.1°F1.2°C 33.3°F0.7°C 97% Calm Calm -- 29.77 in1008.1 mb 0.00 in0.0 mm 0.00 in0.0 mm 0.00 in0.0 mm
01:15 AM 34.2°F1.2°C 33.4°F0.8°C 97% Calm Calm -- 29.77 in1008.1 mb 0.00 in0.0 mm 0.00 in0.0 mm 0.00 in0.0 mm
01:00 AM 34.3°F1.3°C 33.5°F0.8°C 97% Calm Calm -- 29.77 in1008.1 mb 0.00 in0.0 mm 0.00 in0.0 mm 0.00 in0.0 mm
12:45 AM 34.1°F1.2°C 33.3°F0.7°C 97% Calm Calm -- 29.77 in1008.1 mb 0.00 in0.0 mm 0.00 in0.0 mm 0.00 in0.0 mm
12:30 AM 34.1°F1.2°C 33.3°F0.7°C 97% Calm Calm -- 29.77 in1008.1 mb 0.00 in0.0 mm 0.00 in0.0 mm 0.00 in0.0 mm
12:15 AM 34.1°F1.2°C 33.3°F0.7°C 97% Calm Calm -- 29.77 in1008.1 mb 0.00 in0.0 mm 0.00 in0.0 mm 0.00 in0.0 mm
12:00 AM 34.3°F1.3°C 33.5°F0.8°C 97% Calm Calm -- 29.77 in1008.1 mb 0.00 in0.0 mm 0.00 in0.0 mm 0.00 in0.0 mm